createdAt,value
2022-09-02T00:00:07.722Z,15.78
2022-09-02T00:03:11.059Z,15.69
2022-09-02T00:06:15.008Z,15.59
2022-09-02T00:09:21.435Z,15.61
2022-09-02T00:12:25.759Z,15.56
2022-09-02T00:15:28.900Z,15.49
2022-09-02T00:18:32.415Z,15.46
2022-09-02T00:21:36.298Z,15.42
2022-09-02T00:24:39.247Z,15.42
2022-09-02T00:27:43.285Z,15.37
2022-09-02T00:30:46.471Z,15.33
2022-09-02T00:33:51.852Z,15.25
2022-09-02T00:36:54.535Z,15.22
2022-09-02T00:39:57.827Z,15.16
2022-09-02T00:43:02.075Z,15.09
2022-09-02T00:46:05.948Z,15.08
2022-09-02T00:49:15.852Z,15.05
2022-09-02T00:52:22.275Z,15.03
2022-09-02T00:55:28.764Z,15.01
2022-09-02T00:58:36.351Z,14.97
2022-09-02T01:01:39.214Z,14.95
2022-09-02T01:04:43.070Z,14.91
2022-09-02T01:07:46.683Z,14.88
2022-09-02T01:10:49.717Z,14.85
2022-09-02T01:13:54.148Z,14.81
2022-09-02T01:17:01.006Z,14.76
2022-09-02T01:20:12.167Z,14.76
2022-09-02T01:23:17.528Z,14.72
2022-09-02T01:26:21.006Z,14.70
2022-09-02T01:29:25.761Z,14.65
2022-09-02T01:32:30.964Z,14.60
2022-09-02T01:35:33.842Z,14.54
2022-09-02T01:38:38.840Z,14.51
2022-09-02T01:41:41.662Z,14.48
2022-09-02T01:44:45.001Z,14.43
2022-09-02T01:47:47.711Z,14.40
2022-09-02T01:50:55.432Z,14.33
2022-09-02T01:53:59.569Z,14.27
2022-09-02T01:57:03.634Z,14.20
2022-09-02T02:00:08.954Z,14.17
2022-09-02T02:03:11.684Z,14.13
2022-09-02T02:06:17.786Z,14.08
2022-09-02T02:09:22.361Z,14.07
2022-09-02T02:12:25.653Z,14.02
2022-09-02T02:18:31.024Z,13.91
2022-09-02T02:21:34.681Z,13.88
2022-09-02T02:24:39.599Z,13.86
2022-09-02T02:27:43.732Z,13.82
2022-09-02T02:30:46.704Z,13.85
2022-09-02T02:33:49.423Z,13.81
2022-09-02T02:36:52.151Z,13.73
2022-09-02T02:39:57.459Z,13.69
2022-09-02T02:43:00.441Z,13.64
2022-09-02T02:46:03.496Z,13.63
2022-09-02T02:49:06.874Z,13.60
2022-09-02T02:52:11.434Z,13.56
2022-09-02T02:55:16.370Z,13.53
2022-09-02T02:58:19.356Z,13.49
2022-09-02T03:01:22.437Z,13.42
2022-09-02T03:04:25.196Z,13.38
2022-09-02T03:07:28.406Z,13.32
2022-09-02T03:10:33.446Z,13.31
2022-09-02T03:13:36.339Z,13.29
2022-09-02T03:16:39.355Z,13.29
2022-09-02T03:19:42.085Z,13.23
2022-09-02T03:22:45.665Z,13.23
2022-09-02T03:25:51.270Z,13.18
2022-09-02T03:28:56.127Z,13.12
2022-09-02T03:31:59.187Z,13.14
2022-09-02T03:35:03.292Z,13.11
2022-09-02T03:38:06.614Z,13.09
2022-09-02T03:41:10.686Z,13.07
2022-09-02T03:44:13.743Z,13.03
2022-09-02T03:47:18.055Z,12.97
2022-09-02T03:50:26.139Z,12.93
2022-09-02T03:53:29.111Z,12.87
2022-09-02T03:56:33.139Z,12.88
2022-09-02T03:59:36.577Z,12.84
2022-09-02T04:02:39.462Z,12.78
2022-09-02T04:05:47.196Z,12.75
2022-09-02T04:08:51.019Z,12.72
2022-09-02T04:11:55.764Z,12.67
2022-09-02T04:14:58.820Z,12.68
2022-09-02T04:18:01.491Z,12.64
2022-09-02T04:21:04.901Z,12.61
2022-09-02T04:24:09.477Z,12.61
2022-09-02T04:27:13.504Z,12.60
2022-09-02T04:30:17.660Z,12.58
2022-09-02T04:33:20.514Z,12.58
2022-09-02T04:36:24.330Z,12.56
2022-09-02T04:39:27.007Z,12.56
2022-09-02T04:42:31.149Z,12.57
2022-09-02T04:45:34.061Z,12.57
2022-09-02T04:48:38.422Z,12.61
2022-09-02T04:51:41.326Z,12.58
2022-09-02T04:54:44.055Z,12.57
2022-09-02T04:57:48.104Z,12.61
2022-09-02T05:00:51.116Z,12.61
2022-09-02T05:03:54.983Z,12.64
2022-09-02T05:07:01.945Z,12.70
2022-09-02T05:10:06.354Z,12.73
2022-09-02T05:13:10.495Z,12.76
2022-09-02T05:16:16.472Z,12.85
2022-09-02T05:19:19.656Z,12.91
2022-09-02T05:22:22.469Z,12.95
2022-09-02T05:25:25.298Z,13.00
2022-09-02T05:28:29.467Z,13.05
2022-09-02T05:31:32.173Z,13.11
2022-09-02T05:34:35.818Z,13.16
2022-09-02T05:37:38.567Z,13.20
2022-09-02T05:40:41.383Z,13.26
2022-09-02T05:43:45.731Z,13.28
2022-09-02T05:46:49.162Z,13.34
2022-09-02T05:49:52.364Z,13.40
2022-09-02T05:52:55.115Z,13.50
2022-09-02T05:55:58.883Z,13.51
2022-09-02T05:59:03.561Z,13.68
2022-09-02T06:02:07.034Z,14.50
2022-09-02T06:05:12.190Z,15.34
2022-09-02T06:08:15.280Z,15.84
2022-09-02T06:11:19.620Z,16.49
2022-09-02T06:14:25.979Z,16.91
2022-09-02T06:17:28.713Z,16.81
2022-09-02T06:20:32.564Z,17.26
2022-09-02T06:23:38.447Z,17.95
2022-09-02T06:26:42.053Z,18.51
2022-09-02T06:29:46.125Z,18.96
2022-09-02T06:32:50.606Z,19.20
2022-09-02T06:35:53.557Z,19.07
2022-09-02T06:38:58.189Z,18.76
2022-09-02T06:42:01.524Z,18.79
2022-09-02T06:45:06.398Z,18.91
2022-09-02T06:48:09.514Z,19.12
2022-09-02T06:51:17.724Z,19.06
2022-09-02T06:54:22.730Z,19.11
2022-09-02T06:57:29.154Z,19.51
2022-09-02T07:00:39.192Z,19.50
2022-09-02T07:03:59.734Z,19.44
2022-09-02T07:07:05.830Z,19.47
2022-09-02T07:10:11.019Z,19.48
2022-09-02T07:13:14.556Z,19.19
2022-09-02T07:16:25.975Z,18.48
2022-09-02T07:19:29.816Z,18.06
2022-09-02T07:22:32.539Z,17.79
2022-09-02T07:25:35.245Z,17.60
2022-09-02T07:28:37.962Z,17.51
2022-09-02T07:31:43.933Z,17.39
2022-09-02T07:34:47.292Z,17.39
2022-09-02T07:37:50.788Z,17.43
2022-09-02T07:40:56.959Z,17.46
2022-09-02T07:44:00.465Z,17.51
2022-09-02T07:47:05.074Z,17.62
2022-09-02T07:50:18.963Z,17.66
2022-09-02T07:53:23.844Z,17.72
2022-09-02T07:56:26.901Z,17.76
2022-09-02T07:59:29.850Z,17.81
2022-09-02T08:02:34.948Z,17.75
2022-09-02T08:05:38.109Z,17.96
2022-09-02T08:08:41.036Z,18.04
2022-09-02T08:11:46.494Z,18.14
2022-09-02T08:14:49.291Z,18.23
2022-09-02T08:17:53.697Z,18.34
2022-09-02T08:20:56.405Z,18.42
2022-09-02T08:24:00.287Z,18.53
2022-09-02T08:27:03.313Z,18.64
2022-09-02T08:30:09.979Z,18.72
2022-09-02T08:33:14.424Z,18.83
2022-09-02T08:36:17.263Z,18.94
2022-09-02T08:39:19.992Z,19.04
2022-09-02T08:42:24.629Z,19.13
2022-09-02T08:45:34.397Z,19.22
2022-09-02T08:48:45.253Z,19.16
2022-09-02T08:51:53.652Z,19.38
2022-09-02T08:54:57.240Z,19.49
2022-09-02T08:58:01.982Z,19.58
2022-09-02T09:01:14.641Z,19.68
2022-09-02T09:04:35.842Z,19.79
2022-09-02T09:07:51.541Z,19.90
2022-09-02T09:11:00.724Z,20.04
2022-09-02T09:14:13.982Z,20.16
2022-09-02T09:17:27.646Z,20.24
2022-09-02T09:20:34.251Z,20.36
2022-09-02T09:23:39.398Z,20.47
2022-09-02T09:26:43.365Z,20.55
2022-09-02T09:29:46.497Z,20.63
2022-09-02T09:32:54.687Z,20.70
2022-09-02T09:35:59.199Z,20.78
2022-09-02T09:39:19.133Z,20.86
2022-09-02T09:42:33.205Z,20.92
2022-09-02T09:45:37.686Z,21.03
2022-09-02T09:48:51.506Z,21.14
2022-09-02T09:51:57.064Z,21.23
2022-09-02T09:55:13.806Z,21.39
2022-09-02T09:58:16.769Z,21.51
2022-09-02T10:01:22.896Z,21.61
2022-09-02T10:04:46.443Z,21.66
2022-09-02T10:07:57.325Z,21.69
2022-09-02T10:11:03.002Z,21.67
2022-09-02T10:14:08.217Z,21.70
2022-09-02T10:17:28.464Z,21.82
2022-09-02T10:21:11.535Z,21.96
2022-09-02T10:24:39.054Z,22.20
2022-09-02T10:27:50.526Z,22.28
2022-09-02T10:31:00.922Z,22.30
2022-09-02T10:34:17.621Z,22.25
2022-09-02T10:37:23.181Z,22.23
2022-09-02T10:40:37.821Z,22.14
2022-09-02T10:43:59.339Z,22.13
2022-09-02T10:47:05.286Z,22.13
2022-09-02T10:50:18.451Z,22.19
2022-09-02T10:53:33.509Z,22.31
2022-09-02T10:56:46.069Z,22.43
2022-09-02T10:59:55.500Z,22.58
2022-09-02T11:03:12.461Z,22.77
2022-09-02T11:06:21.960Z,22.90
2022-09-02T11:09:33.375Z,22.88
2022-09-02T11:12:41.628Z,22.92
2022-09-02T11:15:48.602Z,23.15
2022-09-02T11:18:58.722Z,23.37
2022-09-02T11:22:09.253Z,23.62
2022-09-02T11:25:16.612Z,23.73
2022-09-02T11:28:33.253Z,23.85
2022-09-02T11:31:39.535Z,23.77
2022-09-02T11:34:47.008Z,23.72
2022-09-02T11:37:53.681Z,23.86
2022-09-02T11:41:34.249Z,23.82
2022-09-02T11:45:10.408Z,23.80
2022-09-02T11:48:40.307Z,23.83
2022-09-02T11:52:05.206Z,23.85
2022-09-02T11:55:16.605Z,23.79
2022-09-02T11:58:37.753Z,23.88
2022-09-02T12:01:50.810Z,23.96
2022-09-02T12:05:17.431Z,24.01
2022-09-02T12:08:59.148Z,24.16
2022-09-02T12:12:02.002Z,24.27
2022-09-02T12:15:16.924Z,24.44
2022-09-02T12:18:31.968Z,24.56
2022-09-02T12:21:36.938Z,24.62
2022-09-02T12:24:52.447Z,24.69
2022-09-02T12:28:19.053Z,24.68
2022-09-02T12:31:42.797Z,24.63
2022-09-02T12:34:57.583Z,24.40
2022-09-02T12:38:23.599Z,24.45
2022-09-02T12:41:32.592Z,24.53
2022-09-02T12:44:44.099Z,24.55
2022-09-02T12:47:59.074Z,24.68
2022-09-02T12:51:03.654Z,24.79
2022-09-02T12:54:07.493Z,24.84
2022-09-02T12:57:11.456Z,24.96
2022-09-02T13:00:16.616Z,25.03
2022-09-02T13:03:35.463Z,25.15
2022-09-02T13:07:14.058Z,25.19
2022-09-02T13:10:39.017Z,25.09
2022-09-02T13:14:15.992Z,24.97
2022-09-02T13:17:37.346Z,25.01
2022-09-02T13:21:11.380Z,25.11
2022-09-02T13:25:06.458Z,25.13
2022-09-02T13:28:34.066Z,25.21
2022-09-02T13:31:36.825Z,25.27
2022-09-02T13:34:43.723Z,25.32
2022-09-02T13:37:55.861Z,25.34
2022-09-02T13:40:59.465Z,25.27
2022-09-02T13:44:11.962Z,25.23
2022-09-02T13:47:17.378Z,25.20
2022-09-02T13:50:22.875Z,25.25
2022-09-02T13:54:04.903Z,25.28
2022-09-02T13:56:52.658Z,25.31
2022-09-02T13:59:58.068Z,25.29
2022-09-02T14:03:04.381Z,25.47
2022-09-02T14:06:08.174Z,25.34
2022-09-02T14:09:21.277Z,25.46
2022-09-02T14:12:24.377Z,25.48
2022-09-02T14:15:30.361Z,25.52
2022-09-02T14:18:33.099Z,25.57
2022-09-02T14:21:37.090Z,25.57
2022-09-02T14:24:42.073Z,25.55
2022-09-02T14:27:50.383Z,25.54
2022-09-02T14:31:00.153Z,25.56
2022-09-02T14:34:04.515Z,25.54
2022-09-02T14:37:20.784Z,25.51
2022-09-02T14:40:34.930Z,25.45
2022-09-02T14:43:44.584Z,25.38
2022-09-02T14:46:51.454Z,25.52
2022-09-02T14:49:57.145Z,25.47
2022-09-02T14:53:04.767Z,25.46
2022-09-02T14:56:08.356Z,25.44
2022-09-02T14:59:11.220Z,25.44
2022-09-02T15:02:24.084Z,25.38
2022-09-02T15:05:26.924Z,25.38
2022-09-02T15:08:29.684Z,25.37
2022-09-02T15:11:32.824Z,25.31
2022-09-02T15:14:35.739Z,25.30
2022-09-02T15:17:40.134Z,25.29
2022-09-02T15:20:42.884Z,25.36
2022-09-02T15:23:51.055Z,25.28
2022-09-02T15:26:54.237Z,25.35
2022-09-02T15:29:57.208Z,25.30
2022-09-02T15:33:05.715Z,25.29
2022-09-02T15:36:12.197Z,25.28
2022-09-02T15:39:15.743Z,25.23
2022-09-02T15:42:18.794Z,25.22
2022-09-02T15:45:21.538Z,25.14
2022-09-02T15:48:26.310Z,25.12
2022-09-02T15:51:29.252Z,25.13
2022-09-02T15:54:32.737Z,25.14
2022-09-02T15:57:35.410Z,25.16
2022-09-02T16:00:38.357Z,25.11
2022-09-02T16:03:42.462Z,25.06
2022-09-02T16:06:49.122Z,25.03
2022-09-02T16:09:51.830Z,24.99
2022-09-02T16:12:54.561Z,24.96
2022-09-02T16:16:01.864Z,24.88
2022-09-02T16:19:07.281Z,24.86
2022-09-02T16:22:09.993Z,24.78
2022-09-02T16:25:12.685Z,24.75
2022-09-02T16:28:15.916Z,24.73
2022-09-02T16:31:21.277Z,24.68
2022-09-02T16:34:25.587Z,24.64
2022-09-02T16:37:28.548Z,24.65
2022-09-02T16:40:31.307Z,24.48
2022-09-02T16:43:34.496Z,24.35
2022-09-02T16:46:41.594Z,24.25
2022-09-02T16:49:46.519Z,24.19
2022-09-02T16:52:49.223Z,24.10
2022-09-02T16:55:51.893Z,24.02
2022-09-02T16:58:55.327Z,23.92
2022-09-02T17:01:58.183Z,23.87
2022-09-02T17:05:02.627Z,23.79
2022-09-02T17:08:05.419Z,23.71
2022-09-02T17:11:12.680Z,23.60
2022-09-02T17:14:17.227Z,23.51
2022-09-02T17:17:20.075Z,23.41
2022-09-02T17:20:24.767Z,23.34
2022-09-02T17:23:27.602Z,23.23
2022-09-02T17:26:32.860Z,23.13
2022-09-02T17:29:51.343Z,23.15
2022-09-02T17:32:56.593Z,23.00
2022-09-02T17:36:01.687Z,22.92
2022-09-02T17:39:08.646Z,22.78
2022-09-02T17:42:10.461Z,22.72
2022-09-02T17:45:13.202Z,22.64
2022-09-02T17:48:45.184Z,22.56
2022-09-02T17:51:42.265Z,22.39
2022-09-02T17:54:47.666Z,22.27
2022-09-02T17:58:04.495Z,22.26
2022-09-02T18:01:11.332Z,22.23
2022-09-02T18:04:26.856Z,22.07
2022-09-02T18:07:37.330Z,22.06
2022-09-02T18:10:51.884Z,22.05
2022-09-02T18:14:10.521Z,21.97
2022-09-02T18:17:23.488Z,21.91
2022-09-02T18:20:40.008Z,21.74
2022-09-02T18:23:58.732Z,21.59
2022-09-02T18:27:12.312Z,21.47
2022-09-02T18:30:21.342Z,21.37
2022-09-02T18:33:40.722Z,21.30
2022-09-02T18:36:50.934Z,21.27
2022-09-02T18:40:11.295Z,21.22
2022-09-02T18:43:22.110Z,21.15
2022-09-02T18:46:29.024Z,21.07
2022-09-02T18:49:34.904Z,21.02
2022-09-02T18:52:38.117Z,20.94
2022-09-02T18:55:45.099Z,20.90
2022-09-02T18:58:50.365Z,20.88
2022-09-02T19:01:56.438Z,20.85
2022-09-02T19:04:59.594Z,20.83
2022-09-02T19:08:24.014Z,20.81
2022-09-02T19:11:29.215Z,20.79
2022-09-02T19:14:32.087Z,20.77
2022-09-02T19:17:34.820Z,20.74
2022-09-02T19:20:38.722Z,20.73
2022-09-02T19:23:41.496Z,20.70
2022-09-02T19:26:46.943Z,20.69
2022-09-02T19:29:52.935Z,20.66
2022-09-02T19:33:01.199Z,20.60
2022-09-02T19:36:04.113Z,20.55
2022-09-02T19:39:08.181Z,20.46
2022-09-02T19:42:12.466Z,20.45
2022-09-02T19:45:16.795Z,20.41
2022-09-02T19:48:20.725Z,20.37
2022-09-02T19:51:27.176Z,20.33
2022-09-02T19:54:30.270Z,20.35
2022-09-02T19:57:34.694Z,20.21
2022-09-02T20:00:37.664Z,20.13
2022-09-02T20:03:40.545Z,20.09
2022-09-02T20:06:43.341Z,20.06
2022-09-02T20:09:46.789Z,20.04
2022-09-02T20:12:51.886Z,19.96
2022-09-02T20:15:57.005Z,19.91
2022-09-02T20:18:59.862Z,19.84
2022-09-02T20:22:02.790Z,19.76
2022-09-02T20:25:06.150Z,19.68
2022-09-02T20:28:20.169Z,19.68
2022-09-02T20:31:43.413Z,19.62
2022-09-02T20:34:57.292Z,19.61
2022-09-02T20:38:11.647Z,19.58
2022-09-02T20:41:27.932Z,19.54
2022-09-02T20:44:58.377Z,19.44
2022-09-02T20:48:14.592Z,19.35
2022-09-02T20:51:23.022Z,19.27
2022-09-02T20:54:40.255Z,19.21
2022-09-02T20:58:16.451Z,19.19
2022-09-02T21:01:26.159Z,19.10
2022-09-02T21:04:34.028Z,19.04
2022-09-02T21:07:45.316Z,18.99
2022-09-02T21:10:52.906Z,19.02
2022-09-02T21:14:03.567Z,19.01
2022-09-02T21:17:12.175Z,18.92
2022-09-02T21:20:20.748Z,18.84
2022-09-02T21:23:28.410Z,18.79
2022-09-02T21:26:40.746Z,18.71
2022-09-02T21:29:50.748Z,18.67
2022-09-02T21:32:59.731Z,18.65
2022-09-02T21:36:05.288Z,18.58
2022-09-02T21:39:15.567Z,18.61
2022-09-02T21:42:27.461Z,18.54
2022-09-02T21:45:40.534Z,18.52
2022-09-02T21:48:57.553Z,18.48
2022-09-02T21:52:08.697Z,18.56
2022-09-02T21:55:20.943Z,18.53
2022-09-02T21:58:50.398Z,18.50
2022-09-02T22:01:57.988Z,18.47
2022-09-02T22:05:13.785Z,18.43
2022-09-02T22:08:26.591Z,18.42
2022-09-02T22:11:36.858Z,18.49
2022-09-02T22:14:48.138Z,18.52
2022-09-02T22:17:55.501Z,18.51
2022-09-02T22:21:03.846Z,18.37
2022-09-02T22:24:07.124Z,18.30
2022-09-02T22:27:16.493Z,18.22
2022-09-02T22:30:19.970Z,18.15
2022-09-02T22:33:27.027Z,18.12
2022-09-02T22:36:43.154Z,18.02
2022-09-02T22:39:51.496Z,17.95
2022-09-02T22:43:01.350Z,17.87
2022-09-02T22:46:33.005Z,17.77
2022-09-02T22:50:00.366Z,17.73
2022-09-02T22:53:04.417Z,17.61
2022-09-02T22:56:11.651Z,17.67
2022-09-02T22:59:26.362Z,17.46
2022-09-02T23:02:36.246Z,17.59
2022-09-02T23:05:50.485Z,17.62
2022-09-02T23:08:55.842Z,17.58
2022-09-02T23:12:07.410Z,17.63
2022-09-02T23:15:22.838Z,17.47
2022-09-02T23:18:37.717Z,17.40
2022-09-02T23:21:48.967Z,17.38
2022-09-02T23:25:15.234Z,17.38
2022-09-02T23:28:20.830Z,17.37
2022-09-02T23:31:32.800Z,17.24
2022-09-02T23:34:51.468Z,17.24
2022-09-02T23:38:07.669Z,17.22
2022-09-02T23:41:12.893Z,17.30
2022-09-02T23:44:16.681Z,17.27
2022-09-02T23:47:37.505Z,17.21
2022-09-02T23:50:49.973Z,17.28
2022-09-02T23:54:08.291Z,17.30
2022-09-02T23:57:28.220Z,17.32
